sensor_id;sensor_type;location;lat;lon;timestamp;pressure;altitude;pressure_sealevel;temperature
13497;BMP180;6820;49.374;8.452;2023-06-19T00:03:57;99947.59;;;32.56
13497;BMP180;6820;49.374;8.452;2023-06-19T00:07:59;99945.66;;;32.61
13497;BMP180;6820;49.374;8.452;2023-06-19T00:12:01;99937.78;;;32.61
13497;BMP180;6820;49.374;8.452;2023-06-19T00:16:03;99930.88;;;32.58
13497;BMP180;6820;49.374;8.452;2023-06-19T00:20:05;99935.41;;;32.53
13497;BMP180;6820;49.374;8.452;2023-06-19T00:24:07;99930.38;;;32.48
13497;BMP180;6820;49.374;8.452;2023-06-19T00:28:08;99940.16;;;32.43
13497;BMP180;6820;49.374;8.452;2023-06-19T00:32:12;99938.66;;;32.36
13497;BMP180;6820;49.374;8.452;2023-06-19T00:36:16;99950.91;;;32.35
13497;BMP180;6820;49.374;8.452;2023-06-19T00:40:31;99966.88;;;32.29
13497;BMP180;6820;49.374;8.452;2023-06-19T00:44:33;99950.41;;;31.97
13497;BMP180;6820;49.374;8.452;2023-06-19T00:48:34;99955.13;;;31.87
13497;BMP180;6820;49.374;8.452;2023-06-19T00:52:36;99978.63;;;31.89
13497;BMP180;6820;49.374;8.452;2023-06-19T00:56:38;99965.53;;;31.89
13497;BMP180;6820;49.374;8.452;2023-06-19T01:00:41;99980.25;;;31.93
13497;BMP180;6820;49.374;8.452;2023-06-19T01:04:58;99975.06;;;31.92
13497;BMP180;6820;49.374;8.452;2023-06-19T01:09:05;99973.34;;;31.91
13497;BMP180;6820;49.374;8.452;2023-06-19T01:13:28;99988.19;;;31.90
13497;BMP180;6820;49.374;8.452;2023-06-19T01:17:33;99987.44;;;31.87
13497;BMP180;6820;49.374;8.452;2023-06-19T01:21:35;99997.09;;;31.85
13497;BMP180;6820;49.374;8.452;2023-06-19T01:25:38;99999.91;;;31.79
13497;BMP180;6820;49.374;8.452;2023-06-19T01:29:40;100000.84;;;31.78
13497;BMP180;6820;49.374;8.452;2023-06-19T01:33:42;100003.38;;;31.80
13497;BMP180;6820;49.374;8.452;2023-06-19T01:37:44;100005.53;;;31.66
13497;BMP180;6820;49.374;8.452;2023-06-19T01:41:47;100017.97;;;31.59
13497;BMP180;6820;49.374;8.452;2023-06-19T01:45:49;100024.16;;;31.57
13497;BMP180;6820;49.374;8.452;2023-06-19T01:49:51;100021.53;;;31.57
13497;BMP180;6820;49.374;8.452;2023-06-19T01:53:53;100028.44;;;31.59
13497;BMP180;6820;49.374;8.452;2023-06-19T01:57:54;100031.09;;;31.58
13497;BMP180;6820;49.374;8.452;2023-06-19T02:01:56;100019.13;;;31.50
13497;BMP180;6820;49.374;8.452;2023-06-19T02:05:58;100029.72;;;31.45
13497;BMP180;6820;49.374;8.452;2023-06-19T02:10:01;100030.63;;;31.44
13497;BMP180;6820;49.374;8.452;2023-06-19T02:14:02;100038.50;;;31.44
13497;BMP180;6820;49.374;8.452;2023-06-19T02:18:04;100037.47;;;31.50
13497;BMP180;6820;49.374;8.452;2023-06-19T02:22:07;100029.81;;;31.42
13497;BMP180;6820;49.374;8.452;2023-06-19T02:26:08;100025.31;;;31.47
13497;BMP180;6820;49.374;8.452;2023-06-19T02:30:10;100033.06;;;31.50
13497;BMP180;6820;49.374;8.452;2023-06-19T02:34:12;100054.13;;;31.47
13497;BMP180;6820;49.374;8.452;2023-06-19T02:38:14;100066.50;;;31.42
13497;BMP180;6820;49.374;8.452;2023-06-19T02:42:16;100071.06;;;31.34
13497;BMP180;6820;49.374;8.452;2023-06-19T02:46:17;100089.75;;;31.23
13497;BMP180;6820;49.374;8.452;2023-06-19T02:50:20;100102.97;;;31.17
13497;BMP180;6820;49.374;8.452;2023-06-19T02:54:22;100114.47;;;31.11
13497;BMP180;6820;49.374;8.452;2023-06-19T02:58:23;100131.03;;;31.12
13497;BMP180;6820;49.374;8.452;2023-06-19T03:02:25;100122.59;;;31.01
13497;BMP180;6820;49.374;8.452;2023-06-19T03:06:26;100137.84;;;30.84
13497;BMP180;6820;49.374;8.452;2023-06-19T03:10:31;100137.28;;;30.70
13497;BMP180;6820;49.374;8.452;2023-06-19T03:14:33;100136.69;;;30.58
13497;BMP180;6820;49.374;8.452;2023-06-19T03:18:34;100146.56;;;30.46
13497;BMP180;6820;49.374;8.452;2023-06-19T03:22:36;100144.06;;;30.41
13497;BMP180;6820;49.374;8.452;2023-06-19T03:26:38;100139.25;;;30.24
13497;BMP180;6820;49.374;8.452;2023-06-19T03:30:40;100146.25;;;30.22
13497;BMP180;6820;49.374;8.452;2023-06-19T03:34:43;100157.63;;;30.19
13497;BMP180;6820;49.374;8.452;2023-06-19T03:38:45;100162.31;;;30.02
13497;BMP180;6820;49.374;8.452;2023-06-19T03:42:49;100165.88;;;29.99
13497;BMP180;6820;49.374;8.452;2023-06-19T03:46:50;100168.59;;;29.94
13497;BMP180;6820;49.374;8.452;2023-06-19T03:50:52;100166.03;;;29.91
13497;BMP180;6820;49.374;8.452;2023-06-19T03:54:54;100166.97;;;29.89
13497;BMP180;6820;49.374;8.452;2023-06-19T03:58:56;100162.53;;;29.92
13497;BMP180;6820;49.374;8.452;2023-06-19T04:02:58;100171.34;;;29.87
13497;BMP180;6820;49.374;8.452;2023-06-19T04:07:00;100175.91;;;29.76
13497;BMP180;6820;49.374;8.452;2023-06-19T04:11:01;100172.41;;;29.77
13497;BMP180;6820;49.374;8.452;2023-06-19T04:15:04;100190.56;;;29.84
13497;BMP180;6820;49.374;8.452;2023-06-19T04:19:06;100188.78;;;29.86
13497;BMP180;6820;49.374;8.452;2023-06-19T04:23:08;100185.97;;;29.97
13497;BMP180;6820;49.374;8.452;2023-06-19T04:27:09;100179.59;;;30.09
13497;BMP180;6820;49.374;8.452;2023-06-19T04:31:11;100177.66;;;30.20
13497;BMP180;6820;49.374;8.452;2023-06-19T04:35:13;100197.75;;;30.18
13497;BMP180;6820;49.374;8.452;2023-06-19T04:39:15;100193.47;;;30.13
13497;BMP180;6820;49.374;8.452;2023-06-19T04:43:17;100191.84;;;30.06
13497;BMP180;6820;49.374;8.452;2023-06-19T04:47:22;100185.84;;;30.01
13497;BMP180;6820;49.374;8.452;2023-06-19T04:51:24;100199.81;;;30.02
13497;BMP180;6820;49.374;8.452;2023-06-19T04:55:25;100201.41;;;30.08
13497;BMP180;6820;49.374;8.452;2023-06-19T04:59:27;100199.44;;;30.21
13497;BMP180;6820;49.374;8.452;2023-06-19T05:03:29;100201.25;;;30.14
13497;BMP180;6820;49.374;8.452;2023-06-19T05:07:30;100204.84;;;30.10
13497;BMP180;6820;49.374;8.452;2023-06-19T05:11:32;100201.41;;;30.08
13497;BMP180;6820;49.374;8.452;2023-06-19T05:15:34;100209.03;;;30.20
13497;BMP180;6820;49.374;8.452;2023-06-19T05:19:36;100221.84;;;30.32
13497;BMP180;6820;49.374;8.452;2023-06-19T05:23:37;100225.38;;;30.30
13497;BMP180;6820;49.374;8.452;2023-06-19T05:27:40;100221.00;;;30.30
13497;BMP180;6820;49.374;8.452;2023-06-19T05:31:41;100217.34;;;30.38
13497;BMP180;6820;49.374;8.452;2023-06-19T05:35:43;100219.81;;;30.46
13497;BMP180;6820;49.374;8.452;2023-06-19T05:39:45;100218.03;;;30.48
13497;BMP180;6820;49.374;8.452;2023-06-19T05:43:46;100214.38;;;30.55
13497;BMP180;6820;49.374;8.452;2023-06-19T05:47:48;100219.34;;;30.66
13497;BMP180;6820;49.374;8.452;2023-06-19T05:51:50;100221.78;;;30.75
13497;BMP180;6820;49.374;8.452;2023-06-19T05:55:51;100209.97;;;30.96
13497;BMP180;6820;49.374;8.452;2023-06-19T05:59:53;100209.94;;;30.97
13497;BMP180;6820;49.374;8.452;2023-06-19T06:03:55;100209.22;;;30.91
13497;BMP180;6820;49.374;8.452;2023-06-19T06:07:57;100210.25;;;30.84
13497;BMP180;6820;49.374;8.452;2023-06-19T06:11:59;100210.31;;;30.81
13497;BMP180;6820;49.374;8.452;2023-06-19T06:16:01;100213.78;;;30.83
13497;BMP180;6820;49.374;8.452;2023-06-19T06:20:03;100229.25;;;30.93
13497;BMP180;6820;49.374;8.452;2023-06-19T06:24:14;100226.38;;;31.03
13497;BMP180;6820;49.374;8.452;2023-06-19T06:28:16;100227.06;;;31.11
13497;BMP180;6820;49.374;8.452;2023-06-19T06:32:19;100218.94;;;31.22
13497;BMP180;6820;49.374;8.452;2023-06-19T06:36:20;100235.22;;;31.34
13497;BMP180;6820;49.374;8.452;2023-06-19T06:40:36;100230.72;;;31.40
13497;BMP180;6820;49.374;8.452;2023-06-19T06:44:38;100241.28;;;31.37
13497;BMP180;6820;49.374;8.452;2023-06-19T06:48:39;100246.16;;;31.51
13497;BMP180;6820;49.374;8.452;2023-06-19T06:52:41;100229.56;;;31.50
13497;BMP180;6820;49.374;8.452;2023-06-19T06:56:43;100243.19;;;31.64
13497;BMP180;6820;49.374;8.452;2023-06-19T07:00:49;100251.78;;;31.69
13497;BMP180;6820;49.374;8.452;2023-06-19T07:04:52;100266.56;;;31.71
13497;BMP180;6820;49.374;8.452;2023-06-19T07:08:54;100258.72;;;31.71
13497;BMP180;6820;49.374;8.452;2023-06-19T07:12:56;100280.00;;;31.59
13497;BMP180;6820;49.374;8.452;2023-06-19T07:16:57;100291.16;;;31.67
13497;BMP180;6820;49.374;8.452;2023-06-19T07:20:59;100289.09;;;31.80
13497;BMP180;6820;49.374;8.452;2023-06-19T07:25:01;100275.44;;;32.00
13497;BMP180;6820;49.374;8.452;2023-06-19T07:29:02;100285.69;;;32.09
13497;BMP180;6820;49.374;8.452;2023-06-19T07:33:04;100292.50;;;32.16
13497;BMP180;6820;49.374;8.452;2023-06-19T07:37:05;100296.91;;;32.14
13497;BMP180;6820;49.374;8.452;2023-06-19T07:41:07;100295.78;;;32.22
13497;BMP180;6820;49.374;8.452;2023-06-19T07:45:11;100300.03;;;32.28
13497;BMP180;6820;49.374;8.452;2023-06-19T07:49:13;100313.69;;;32.40
13497;BMP180;6820;49.374;8.452;2023-06-19T07:53:15;100329.19;;;32.49
13497;BMP180;6820;49.374;8.452;2023-06-19T07:57:16;100326.00;;;32.68
13497;BMP180;6820;49.374;8.452;2023-06-19T08:01:18;100317.72;;;32.83
13497;BMP180;6820;49.374;8.452;2023-06-19T08:05:20;100322.47;;;32.99
13497;BMP180;6820;49.374;8.452;2023-06-19T08:09:22;100322.03;;;33.13
13497;BMP180;6820;49.374;8.452;2023-06-19T08:13:24;100320.41;;;33.37
13497;BMP180;6820;49.374;8.452;2023-06-19T08:17:25;100320.53;;;33.60
13497;BMP180;6820;49.374;8.452;2023-06-19T08:21:27;100330.44;;;33.79
13497;BMP180;6820;49.374;8.452;2023-06-19T08:25:29;100322.50;;;33.80
13497;BMP180;6820;49.374;8.452;2023-06-19T08:29:30;100327.91;;;34.02
13497;BMP180;6820;49.374;8.452;2023-06-19T08:33:34;100321.00;;;33.98
13497;BMP180;6820;49.374;8.452;2023-06-19T08:37:36;100324.97;;;33.85
13497;BMP180;6820;49.374;8.452;2023-06-19T08:41:38;100325.59;;;33.66
13497;BMP180;6820;49.374;8.452;2023-06-19T08:45:40;100328.91;;;33.45
13497;BMP180;6820;49.374;8.452;2023-06-19T08:49:42;100340.88;;;33.28
13497;BMP180;6820;49.374;8.452;2023-06-19T08:53:48;100344.34;;;33.28
13497;BMP180;6820;49.374;8.452;2023-06-19T08:57:53;100339.38;;;33.74
13497;BMP180;6820;49.374;8.452;2023-06-19T09:01:55;100340.84;;;34.07
13497;BMP180;6820;49.374;8.452;2023-06-19T09:06:03;100341.66;;;34.09
13497;BMP180;6820;49.374;8.452;2023-06-19T09:10:15;100339.06;;;34.08
13497;BMP180;6820;49.374;8.452;2023-06-19T09:14:24;100334.91;;;34.01
13497;BMP180;6820;49.374;8.452;2023-06-19T09:18:26;100328.56;;;34.06
13497;BMP180;6820;49.374;8.452;2023-06-19T09:22:28;100326.38;;;34.20
13497;BMP180;6820;49.374;8.452;2023-06-19T09:26:34;100332.28;;;34.27
13497;BMP180;6820;49.374;8.452;2023-06-19T09:30:36;100332.50;;;34.19
13497;BMP180;6820;49.374;8.452;2023-06-19T09:34:37;100326.16;;;34.26
13497;BMP180;6820;49.374;8.452;2023-06-19T09:38:39;100317.78;;;34.39
13497;BMP180;6820;49.374;8.452;2023-06-19T09:42:48;100320.03;;;34.50
13497;BMP180;6820;49.374;8.452;2023-06-19T09:47:02;100315.97;;;34.41
13497;BMP180;6820;49.374;8.452;2023-06-19T09:51:20;100319.69;;;34.36
13497;BMP180;6820;49.374;8.452;2023-06-19T09:55:27;100311.56;;;34.42
13497;BMP180;6820;49.374;8.452;2023-06-19T09:59:32;100317.31;;;34.51
13497;BMP180;6820;49.374;8.452;2023-06-19T10:03:36;100306.19;;;34.45
13497;BMP180;6820;49.374;8.452;2023-06-19T10:07:42;100312.47;;;34.64
13497;BMP180;6820;49.374;8.452;2023-06-19T10:11:46;100299.72;;;34.76
13497;BMP180;6820;49.374;8.452;2023-06-19T10:15:48;100300.78;;;34.95
13497;BMP180;6820;49.374;8.452;2023-06-19T10:19:50;100298.50;;;35.07
13497;BMP180;6820;49.374;8.452;2023-06-19T10:23:57;100301.84;;;35.12
13497;BMP180;6820;49.374;8.452;2023-06-19T10:27:59;100293.88;;;35.13
13497;BMP180;6820;49.374;8.452;2023-06-19T10:32:01;100287.47;;;35.20
13497;BMP180;6820;49.374;8.452;2023-06-19T10:36:32;100287.22;;;35.26
13497;BMP180;6820;49.374;8.452;2023-06-19T10:40:37;100289.44;;;35.36
13497;BMP180;6820;49.374;8.452;2023-06-19T10:44:39;100291.31;;;35.54
13497;BMP180;6820;49.374;8.452;2023-06-19T10:48:43;100283.78;;;35.66
13497;BMP180;6820;49.374;8.452;2023-06-19T10:52:45;100262.50;;;35.91
13497;BMP180;6820;49.374;8.452;2023-06-19T10:56:47;100272.06;;;35.73
13497;BMP180;6820;49.374;8.452;2023-06-19T11:00:50;100267.22;;;35.63
13497;BMP180;6820;49.374;8.452;2023-06-19T11:04:53;100264.41;;;35.67
13497;BMP180;6820;49.374;8.452;2023-06-19T11:08:55;100255.88;;;35.61
13497;BMP180;6820;49.374;8.452;2023-06-19T11:12:58;100249.28;;;35.51
13497;BMP180;6820;49.374;8.452;2023-06-19T11:17:01;100246.84;;;35.66
13497;BMP180;6820;49.374;8.452;2023-06-19T11:21:03;100228.66;;;36.00
13497;BMP180;6820;49.374;8.452;2023-06-19T11:25:06;100221.69;;;36.19
13497;BMP180;6820;49.374;8.452;2023-06-19T11:33:23;100212.25;;;36.51
13497;BMP180;6820;49.374;8.452;2023-06-19T11:37:29;100216.03;;;36.82
13497;BMP180;6820;49.374;8.452;2023-06-19T11:41:31;100214.75;;;37.09
13497;BMP180;6820;49.374;8.452;2023-06-19T11:45:44;100205.97;;;37.08
13497;BMP180;6820;49.374;8.452;2023-06-19T11:49:50;100222.53;;;36.93
13497;BMP180;6820;49.374;8.452;2023-06-19T11:53:52;100215.13;;;37.01
13497;BMP180;6820;49.374;8.452;2023-06-19T11:57:54;100209.22;;;37.13
13497;BMP180;6820;49.374;8.452;2023-06-19T12:01:55;100210.97;;;37.14
13497;BMP180;6820;49.374;8.452;2023-06-19T12:05:59;100206.97;;;37.57
13497;BMP180;6820;49.374;8.452;2023-06-19T12:10:02;100206.38;;;37.86
13497;BMP180;6820;49.374;8.452;2023-06-19T12:14:05;100214.16;;;37.72
13497;BMP180;6820;49.374;8.452;2023-06-19T12:18:06;100201.47;;;37.62
13497;BMP180;6820;49.374;8.452;2023-06-19T12:22:09;100199.13;;;37.73
13497;BMP180;6820;49.374;8.452;2023-06-19T12:26:10;100189.88;;;37.81
13497;BMP180;6820;49.374;8.452;2023-06-19T12:30:12;100189.91;;;38.13
13497;BMP180;6820;49.374;8.452;2023-06-19T12:34:14;100184.97;;;38.39
13497;BMP180;6820;49.374;8.452;2023-06-19T12:38:31;100175.41;;;38.52
13497;BMP180;6820;49.374;8.452;2023-06-19T12:42:33;100176.16;;;38.54
13497;BMP180;6820;49.374;8.452;2023-06-19T12:46:34;100177.84;;;38.40
13497;BMP180;6820;49.374;8.452;2023-06-19T12:50:36;100174.84;;;38.30
13497;BMP180;6820;49.374;8.452;2023-06-19T12:54:37;100167.94;;;38.43
13497;BMP180;6820;49.374;8.452;2023-06-19T12:58:40;100175.50;;;38.81
13497;BMP180;6820;49.374;8.452;2023-06-19T13:02:42;100166.97;;;38.76
13497;BMP180;6820;49.374;8.452;2023-06-19T13:06:44;100167.63;;;39.10
13497;BMP180;6820;49.374;8.452;2023-06-19T13:10:46;100165.75;;;39.12
13497;BMP180;6820;49.374;8.452;2023-06-19T13:14:48;100169.16;;;38.83
13497;BMP180;6820;49.374;8.452;2023-06-19T13:18:49;100166.53;;;39.14
13497;BMP180;6820;49.374;8.452;2023-06-19T13:22:51;100164.94;;;39.25
13497;BMP180;6820;49.374;8.452;2023-06-19T13:26:54;100155.28;;;39.24
13497;BMP180;6820;49.374;8.452;2023-06-19T13:30:56;100156.94;;;39.40
13497;BMP180;6820;49.374;8.452;2023-06-19T13:34:57;100145.44;;;39.55
13497;BMP180;6820;49.374;8.452;2023-06-19T13:38:59;100135.72;;;39.83
13497;BMP180;6820;49.374;8.452;2023-06-19T13:43:01;100136.59;;;40.11
13497;BMP180;6820;49.374;8.452;2023-06-19T13:47:04;100122.69;;;40.61
13497;BMP180;6820;49.374;8.452;2023-06-19T13:51:06;100126.00;;;40.39
13497;BMP180;6820;49.374;8.452;2023-06-19T13:55:09;100116.34;;;39.97
13497;BMP180;6820;49.374;8.452;2023-06-19T13:59:10;100116.84;;;39.60
13497;BMP180;6820;49.374;8.452;2023-06-19T14:03:13;100105.19;;;39.63
13497;BMP180;6820;49.374;8.452;2023-06-19T14:07:15;100098.47;;;39.85
13497;BMP180;6820;49.374;8.452;2023-06-19T14:11:19;100093.38;;;40.09
13497;BMP180;6820;49.374;8.452;2023-06-19T14:15:20;100091.47;;;40.39
13497;BMP180;6820;49.374;8.452;2023-06-19T14:19:23;100088.72;;;40.66
13497;BMP180;6820;49.374;8.452;2023-06-19T14:23:24;100087.72;;;40.55
13497;BMP180;6820;49.374;8.452;2023-06-19T14:27:26;100089.16;;;40.33
13497;BMP180;6820;49.374;8.452;2023-06-19T14:31:28;100090.84;;;40.48
13497;BMP180;6820;49.374;8.452;2023-06-19T14:35:29;100080.88;;;41.03
13497;BMP180;6820;49.374;8.452;2023-06-19T14:39:31;100064.81;;;41.55
13497;BMP180;6820;49.374;8.452;2023-06-19T14:43:33;100069.91;;;41.22
13497;BMP180;6820;49.374;8.452;2023-06-19T14:47:36;100073.00;;;40.90
13497;BMP180;6820;49.374;8.452;2023-06-19T14:51:38;100063.34;;;40.75
13497;BMP180;6820;49.374;8.452;2023-06-19T14:55:40;100072.13;;;40.63
13497;BMP180;6820;49.374;8.452;2023-06-19T14:59:46;100068.94;;;40.70
13497;BMP180;6820;49.374;8.452;2023-06-19T15:03:48;100077.88;;;40.69
13497;BMP180;6820;49.374;8.452;2023-06-19T15:07:50;100064.22;;;40.75
13497;BMP180;6820;49.374;8.452;2023-06-19T15:11:52;100070.03;;;40.68
13497;BMP180;6820;49.374;8.452;2023-06-19T15:15:53;100066.78;;;40.23
13497;BMP180;6820;49.374;8.452;2023-06-19T15:19:55;100064.44;;;39.77
13497;BMP180;6820;49.374;8.452;2023-06-19T15:23:57;100070.16;;;39.42
13497;BMP180;6820;49.374;8.452;2023-06-19T15:27:58;100072.97;;;39.26
13497;BMP180;6820;49.374;8.452;2023-06-19T15:32:00;100070.88;;;39.02
13497;BMP180;6820;49.374;8.452;2023-06-19T15:36:01;100072.53;;;38.89
13497;BMP180;6820;49.374;8.452;2023-06-19T15:40:04;100066.41;;;38.73
13497;BMP180;6820;49.374;8.452;2023-06-19T15:44:06;100063.31;;;38.65
13497;BMP180;6820;49.374;8.452;2023-06-19T15:48:07;100048.56;;;38.61
13497;BMP180;6820;49.374;8.452;2023-06-19T15:52:09;100042.13;;;38.65
13497;BMP180;6820;49.374;8.452;2023-06-19T15:56:11;100031.91;;;38.74
13497;BMP180;6820;49.374;8.452;2023-06-19T16:00:13;100033.44;;;38.63
13497;BMP180;6820;49.374;8.452;2023-06-19T16:04:15;100037.13;;;38.45
13497;BMP180;6820;49.374;8.452;2023-06-19T16:08:21;100032.50;;;38.49
13497;BMP180;6820;49.374;8.452;2023-06-19T16:12:24;100026.75;;;38.56
13497;BMP180;6820;49.374;8.452;2023-06-19T16:16:26;100031.41;;;38.38
13497;BMP180;6820;49.374;8.452;2023-06-19T16:20:28;100034.91;;;38.38
13497;BMP180;6820;49.374;8.452;2023-06-19T16:24:30;100028.63;;;38.25
13497;BMP180;6820;49.374;8.452;2023-06-19T16:28:31;100031.16;;;38.27
13497;BMP180;6820;49.374;8.452;2023-06-19T16:32:33;100023.69;;;38.03
13497;BMP180;6820;49.374;8.452;2023-06-19T16:36:36;100033.06;;;37.93
13497;BMP180;6820;49.374;8.452;2023-06-19T16:40:38;100026.75;;;37.95
13497;BMP180;6820;49.374;8.452;2023-06-19T16:44:39;100034.63;;;37.97
13497;BMP180;6820;49.374;8.452;2023-06-19T16:48:41;100034.47;;;38.00
13497;BMP180;6820;49.374;8.452;2023-06-19T16:52:43;100033.63;;;37.99
13497;BMP180;6820;49.374;8.452;2023-06-19T16:56:45;100031.88;;;37.98
13497;BMP180;6820;49.374;8.452;2023-06-19T17:00:47;100034.69;;;37.80
13497;BMP180;6820;49.374;8.452;2023-06-19T17:04:48;100034.03;;;37.60
13497;BMP180;6820;49.374;8.452;2023-06-19T17:08:52;100039.38;;;37.43
13497;BMP180;6820;49.374;8.452;2023-06-19T17:12:54;100037.25;;;37.33
13497;BMP180;6820;49.374;8.452;2023-06-19T17:16:56;100031.97;;;37.33
13497;BMP180;6820;49.374;8.452;2023-06-19T17:20:58;100028.63;;;37.29
13497;BMP180;6820;49.374;8.452;2023-06-19T17:24:59;100018.28;;;37.42
13497;BMP180;6820;49.374;8.452;2023-06-19T17:29:01;100023.38;;;37.61
13497;BMP180;6820;49.374;8.452;2023-06-19T17:33:05;100026.03;;;37.77
13497;BMP180;6820;49.374;8.452;2023-06-19T17:37:08;100030.88;;;37.85
13497;BMP180;6820;49.374;8.452;2023-06-19T17:41:09;100020.13;;;37.88
13497;BMP180;6820;49.374;8.452;2023-06-19T17:45:11;100029.69;;;37.91
13497;BMP180;6820;49.374;8.452;2023-06-19T17:49:13;100024.28;;;37.92
13497;BMP180;6820;49.374;8.452;2023-06-19T17:53:14;100029.75;;;37.89
13497;BMP180;6820;49.374;8.452;2023-06-19T17:57:16;100037.25;;;37.81
13497;BMP180;6820;49.374;8.452;2023-06-19T18:01:18;100040.03;;;37.79
13497;BMP180;6820;49.374;8.452;2023-06-19T18:05:20;100034.31;;;37.71
13497;BMP180;6820;49.374;8.452;2023-06-19T18:09:22;100032.16;;;37.62
13497;BMP180;6820;49.374;8.452;2023-06-19T18:13:24;100026.16;;;37.43
13497;BMP180;6820;49.374;8.452;2023-06-19T18:17:25;100030.81;;;37.21
13497;BMP180;6820;49.374;8.452;2023-06-19T18:21:27;100035.19;;;37.06
13497;BMP180;6820;49.374;8.452;2023-06-19T18:25:28;100035.22;;;36.87
13497;BMP180;6820;49.374;8.452;2023-06-19T18:29:30;100041.25;;;36.73
13497;BMP180;6820;49.374;8.452;2023-06-19T18:33:32;100042.66;;;36.63
13497;BMP180;6820;49.374;8.452;2023-06-19T18:37:34;100046.00;;;36.48
13497;BMP180;6820;49.374;8.452;2023-06-19T18:41:35;100034.56;;;36.31
13497;BMP180;6820;49.374;8.452;2023-06-19T18:45:37;100032.50;;;36.19
13497;BMP180;6820;49.374;8.452;2023-06-19T18:49:39;100036.63;;;36.06
13497;BMP180;6820;49.374;8.452;2023-06-19T18:53:41;100031.97;;;35.93
13497;BMP180;6820;49.374;8.452;2023-06-19T18:57:42;100029.97;;;35.80
13497;BMP180;6820;49.374;8.452;2023-06-19T19:01:45;100037.53;;;35.69
13497;BMP180;6820;49.374;8.452;2023-06-19T19:05:47;100026.56;;;35.58
13497;BMP180;6820;49.374;8.452;2023-06-19T19:09:49;100030.72;;;35.45
13497;BMP180;6820;49.374;8.452;2023-06-19T19:13:51;100031.09;;;35.36
13497;BMP180;6820;49.374;8.452;2023-06-19T19:17:52;100029.72;;;35.28
13497;BMP180;6820;49.374;8.452;2023-06-19T19:21:54;100034.41;;;35.22
13497;BMP180;6820;49.374;8.452;2023-06-19T19:25:56;100034.09;;;35.08
13497;BMP180;6820;49.374;8.452;2023-06-19T19:29:57;100034.72;;;34.95
13497;BMP180;6820;49.374;8.452;2023-06-19T19:34:00;100041.06;;;34.89
13497;BMP180;6820;49.374;8.452;2023-06-19T19:38:02;100043.06;;;34.84
13497;BMP180;6820;49.374;8.452;2023-06-19T19:42:04;100054.91;;;34.74
13497;BMP180;6820;49.374;8.452;2023-06-19T19:46:06;100062.66;;;34.56
13497;BMP180;6820;49.374;8.452;2023-06-19T19:50:08;100058.75;;;34.45
13497;BMP180;6820;49.374;8.452;2023-06-19T19:54:11;100058.09;;;34.38
13497;BMP180;6820;49.374;8.452;2023-06-19T19:58:13;100064.56;;;34.32
13497;BMP180;6820;49.374;8.452;2023-06-19T20:02:15;100072.81;;;34.23
13497;BMP180;6820;49.374;8.452;2023-06-19T20:06:16;100061.78;;;34.12
13497;BMP180;6820;49.374;8.452;2023-06-19T20:10:18;100072.66;;;34.03
13497;BMP180;6820;49.374;8.452;2023-06-19T20:14:20;100077.31;;;33.97
13497;BMP180;6820;49.374;8.452;2023-06-19T20:18:21;100075.81;;;33.90
13497;BMP180;6820;49.374;8.452;2023-06-19T20:22:24;100077.06;;;33.80
13497;BMP180;6820;49.374;8.452;2023-06-19T20:26:26;100079.09;;;33.74
13497;BMP180;6820;49.374;8.452;2023-06-19T20:30:27;100084.47;;;33.69
13497;BMP180;6820;49.374;8.452;2023-06-19T20:34:29;100075.03;;;33.64
13497;BMP180;6820;49.374;8.452;2023-06-19T20:38:31;100077.00;;;33.59
13497;BMP180;6820;49.374;8.452;2023-06-19T20:42:33;100089.38;;;33.55
13497;BMP180;6820;49.374;8.452;2023-06-19T20:46:35;100071.78;;;33.57
13497;BMP180;6820;49.374;8.452;2023-06-19T20:50:37;100070.97;;;33.55
13497;BMP180;6820;49.374;8.452;2023-06-19T20:54:38;100075.59;;;33.49
13497;BMP180;6820;49.374;8.452;2023-06-19T20:58:41;100075.81;;;33.43
13497;BMP180;6820;49.374;8.452;2023-06-19T21:02:43;100075.16;;;33.37
13497;BMP180;6820;49.374;8.452;2023-06-19T21:06:45;100076.41;;;33.27
13497;BMP180;6820;49.374;8.452;2023-06-19T21:10:47;100068.81;;;33.18
13497;BMP180;6820;49.374;8.452;2023-06-19T21:14:49;100081.53;;;33.06
13497;BMP180;6820;49.374;8.452;2023-06-19T21:18:52;100077.16;;;33.05
13497;BMP180;6820;49.374;8.452;2023-06-19T21:22:54;100064.09;;;33.03
13497;BMP180;6820;49.374;8.452;2023-06-19T21:26:56;100062.53;;;32.98
13497;BMP180;6820;49.374;8.452;2023-06-19T21:30:57;100055.66;;;32.94
13497;BMP180;6820;49.374;8.452;2023-06-19T21:34:59;100046.41;;;32.84
13497;BMP180;6820;49.374;8.452;2023-06-19T21:39:01;100045.81;;;32.73
13497;BMP180;6820;49.374;8.452;2023-06-19T21:43:02;100049.69;;;32.63
13497;BMP180;6820;49.374;8.452;2023-06-19T21:47:04;100047.94;;;32.62
13497;BMP180;6820;49.374;8.452;2023-06-19T21:51:06;100044.69;;;32.56
13497;BMP180;6820;49.374;8.452;2023-06-19T21:55:08;100043.75;;;32.57
13497;BMP180;6820;49.374;8.452;2023-06-19T21:59:10;100052.44;;;32.59
13497;BMP180;6820;49.374;8.452;2023-06-19T22:03:11;100046.28;;;32.60
13497;BMP180;6820;49.374;8.452;2023-06-19T22:07:13;100042.88;;;32.58
13497;BMP180;6820;49.374;8.452;2023-06-19T22:11:15;100040.06;;;32.62
13497;BMP180;6820;49.374;8.452;2023-06-19T22:15:17;100035.84;;;32.58
13497;BMP180;6820;49.374;8.452;2023-06-19T22:19:19;100028.97;;;32.54
13497;BMP180;6820;49.374;8.452;2023-06-19T22:23:20;100027.16;;;32.56
13497;BMP180;6820;49.374;8.452;2023-06-19T22:27:22;100022.84;;;32.55
13497;BMP180;6820;49.374;8.452;2023-06-19T22:31:23;100015.81;;;32.56
13497;BMP180;6820;49.374;8.452;2023-06-19T22:35:25;100027.13;;;32.58
13497;BMP180;6820;49.374;8.452;2023-06-19T22:39:28;100028.84;;;32.59
13497;BMP180;6820;49.374;8.452;2023-06-19T22:43:29;100030.75;;;32.54
13497;BMP180;6820;49.374;8.452;2023-06-19T22:47:31;100027.47;;;32.48
13497;BMP180;6820;49.374;8.452;2023-06-19T22:51:33;100022.03;;;32.53
13497;BMP180;6820;49.374;8.452;2023-06-19T22:55:34;100033.25;;;32.57
13497;BMP180;6820;49.374;8.452;2023-06-19T22:59:36;100034.28;;;32.53
13497;BMP180;6820;49.374;8.452;2023-06-19T23:03:38;100050.47;;;32.40
13497;BMP180;6820;49.374;8.452;2023-06-19T23:07:44;100073.72;;;32.23
13497;BMP180;6820;49.374;8.452;2023-06-19T23:11:45;100081.41;;;32.00
13497;BMP180;6820;49.374;8.452;2023-06-19T23:15:49;100088.75;;;31.58
13497;BMP180;6820;49.374;8.452;2023-06-19T23:19:51;100077.97;;;31.38
13497;BMP180;6820;49.374;8.452;2023-06-19T23:23:53;100066.06;;;30.58